Time;durP1;ratioP1;P1;durP2;ratioP2;P2;SDS_P1;SDS_P2;PMS_P1;PMS_P2;Temp;Humidity;BMP_temperature;BMP_pressure;BME280_temperature;BME280_humidity;BME280_pressure;Samples;Min_cycle;Max_cycle;Signal;HPM_P1;HPM_P2
2023/04/15 00:00:51;;;;;;;4.90;4.10;;;6.90;99.90;;;;;;5040355;28;20227;-77
2023/04/15 00:03:18;;;;;;;5.13;4.23;;;6.90;99.90;;;;;;5041533;28;20618;-75
2023/04/15 00:05:44;;;;;;;5.17;3.77;;;6.90;99.90;;;;;;5044441;28;20217;-77
2023/04/15 00:08:11;;;;;;;4.20;3.63;;;6.90;99.90;;;;;;5034875;28;20449;-78
2023/04/15 00:10:42;;;;;;;5.27;4.17;;;6.80;99.90;;;;;;5037807;28;20229;-77
2023/04/15 00:13:09;;;;;;;4.67;4.00;;;6.70;99.90;;;;;;5041551;28;20221;-77
2023/04/15 00:15:36;;;;;;;4.43;4.00;;;6.80;99.90;;;;;;5041886;28;20225;-76
2023/04/15 00:18:04;;;;;;;5.13;4.20;;;6.80;99.90;;;;;;5057611;28;20229;-78
2023/04/15 00:20:31;;;;;;;5.87;3.80;;;6.80;99.90;;;;;;5045214;28;20238;-77
2023/04/15 00:22:59;;;;;;;4.73;4.07;;;6.80;99.90;;;;;;5043120;28;20747;-78
2023/04/15 00:25:26;;;;;;;5.00;3.73;;;6.70;99.90;;;;;;5045143;28;20235;-78
2023/04/15 00:27:54;;;;;;;5.03;3.97;;;6.70;99.90;;;;;;5041772;28;20765;-77
2023/04/15 00:30:21;;;;;;;4.40;3.70;;;6.70;99.90;;;;;;5039987;28;20325;-77
2023/04/15 00:32:48;;;;;;;4.53;4.03;;;6.70;99.90;;;;;;5044372;28;20862;-77
2023/04/15 00:35:17;;;;;;;6.03;3.87;;;6.70;99.90;;;;;;5042482;28;20246;-76
2023/04/15 00:37:44;;;;;;;4.57;3.90;;;6.70;99.90;;;;;;5045902;28;20311;-77
2023/04/15 00:40:13;;;;;;;4.70;3.80;;;6.70;99.90;;;;;;5043291;28;20323;-74
2023/04/15 00:42:40;;;;;;;5.33;3.97;;;6.70;99.90;;;;;;5040842;28;20254;-76
2023/04/15 00:45:10;;;;;;;5.63;3.97;;;6.70;99.90;;;;;;5040518;28;20240;-76
2023/04/15 00:47:39;;;;;;;4.17;3.70;;;6.70;99.90;;;;;;5040634;28;20753;-77
2023/04/15 00:50:07;;;;;;;4.67;4.20;;;6.70;99.90;;;;;;5040433;28;20893;-76
2023/04/15 00:52:35;;;;;;;4.77;3.67;;;6.70;99.90;;;;;;5038921;28;20225;-76
2023/04/15 00:55:03;;;;;;;5.60;4.23;;;6.70;99.90;;;;;;5042649;28;20225;-77
2023/04/15 00:57:30;;;;;;;4.77;4.07;;;6.70;99.90;;;;;;5038505;28;20299;-76
2023/04/15 00:59:58;;;;;;;4.87;4.00;;;6.70;99.90;;;;;;5056381;28;20244;-77
2023/04/15 01:02:26;;;;;;;5.80;4.37;;;6.70;99.90;;;;;;5040517;28;20271;-77
2023/04/15 01:04:53;;;;;;;4.67;4.07;;;6.70;99.90;;;;;;5040294;28;20706;-76
2023/04/15 01:07:19;;;;;;;4.57;4.03;;;6.70;99.90;;;;;;5046998;22;20230;-79
2023/04/15 01:09:46;;;;;;;5.10;4.20;;;6.70;99.90;;;;;;5025172;28;20465;-79
2023/04/15 01:12:15;;;;;;;6.17;3.93;;;6.60;99.90;;;;;;5022311;28;20913;-79
2023/04/15 01:14:42;;;;;;;5.50;4.43;;;6.70;99.90;;;;;;5038556;28;20221;-79
2023/04/15 01:17:09;;;;;;;4.63;3.87;;;6.70;99.90;;;;;;5024684;28;20589;-79
2023/04/15 01:19:38;;;;;;;5.33;4.37;;;6.70;99.90;;;;;;5024885;28;20688;-79
2023/04/15 01:22:05;;;;;;;5.73;4.70;;;6.70;99.90;;;;;;5023716;28;20333;-79
2023/04/15 01:24:33;;;;;;;5.37;4.40;;;6.70;99.90;;;;;;5024079;28;20242;-79
2023/04/15 01:27:01;;;;;;;5.73;4.17;;;6.70;99.90;;;;;;5025694;28;20241;-80
2023/04/15 01:29:28;;;;;;;5.03;4.17;;;6.70;99.90;;;;;;5023667;28;20222;-80
2023/04/15 01:31:56;;;;;;;5.23;4.40;;;6.70;99.90;;;;;;5023944;28;20311;-79
2023/04/15 01:34:26;;;;;;;5.67;4.17;;;6.70;99.90;;;;;;5021989;28;20214;-79
2023/04/15 01:36:54;;;;;;;5.37;4.23;;;6.70;99.90;;;;;;5024690;28;20224;-79
2023/04/15 01:39:22;;;;;;;4.60;4.13;;;6.70;99.90;;;;;;5023608;28;20260;-79
2023/04/15 01:41:49;;;;;;;7.17;4.80;;;6.70;99.90;;;;;;5019153;28;20213;-79
2023/04/15 01:44:17;;;;;;;5.87;5.07;;;6.80;99.90;;;;;;5027330;28;20224;-79
2023/04/15 01:46:44;;;;;;;6.20;4.77;;;6.80;99.90;;;;;;5040328;28;20275;-79
2023/04/15 01:49:11;;;;;;;5.73;4.90;;;6.80;99.90;;;;;;5023770;28;20226;-78
2023/04/15 01:51:38;;;;;;;5.77;4.67;;;6.80;99.90;;;;;;5028592;28;20263;-79
2023/04/15 01:54:06;;;;;;;6.53;5.23;;;6.80;99.90;;;;;;5037683;28;20284;-79
2023/04/15 01:56:33;;;;;;;8.40;5.30;;;6.70;99.90;;;;;;5025287;28;20230;-79
2023/04/15 01:59:00;;;;;;;6.13;5.10;;;6.80;99.90;;;;;;5024590;28;20485;-79
2023/04/15 02:01:28;;;;;;;5.97;4.97;;;6.80;99.90;;;;;;5025323;28;20597;-78
2023/04/15 02:03:55;;;;;;;6.37;5.23;;;6.80;99.90;;;;;;5024733;28;20287;-79
2023/04/15 02:06:22;;;;;;;8.03;6.13;;;6.80;99.90;;;;;;5021931;28;20222;-79
2023/04/15 02:08:49;;;;;;;8.10;6.03;;;6.80;99.90;;;;;;5025634;28;20632;-79
2023/04/15 02:11:16;;;;;;;7.10;5.23;;;6.80;99.90;;;;;;5024792;28;20221;-79
2023/04/15 02:13:43;;;;;;;7.00;6.00;;;6.80;99.90;;;;;;5024516;28;20258;-79
2023/04/15 02:16:16;;;;;;;8.37;6.73;;;6.80;99.90;;;;;;5024914;28;20236;-79
2023/04/15 02:18:46;;;;;;;8.37;6.20;;;6.80;99.90;;;;;;5032107;28;20231;-79
2023/04/15 02:21:13;;;;;;;8.53;6.43;;;6.80;99.90;;;;;;5029294;28;20288;-79
2023/04/15 02:23:40;;;;;;;9.00;7.00;;;6.80;99.90;;;;;;5030515;28;20228;-80
2023/04/15 02:26:07;;;;;;;8.53;6.73;;;6.80;99.90;;;;;;5028182;28;20217;-81
2023/04/15 02:28:34;;;;;;;9.47;7.03;;;6.80;99.90;;;;;;5026937;28;20235;-80
2023/04/15 02:31:01;;;;;;;9.20;7.30;;;6.80;99.90;;;;;;5029010;28;20289;-79
2023/04/15 02:33:31;;;;;;;9.90;7.37;;;6.80;99.90;;;;;;5033224;28;20225;-79
2023/04/15 02:36:00;;;;;;;9.50;7.43;;;6.80;99.90;;;;;;5026429;28;20830;-79
2023/04/15 02:38:28;;;;;;;10.80;7.97;;;6.90;99.90;;;;;;5028425;28;20227;-79
2023/04/15 02:40:56;;;;;;;11.30;8.17;;;6.90;99.90;;;;;;5035391;28;20223;-79
2023/04/15 02:43:23;;;;;;;12.03;9.10;;;6.90;99.90;;;;;;5026099;28;20237;-79
2023/04/15 02:45:51;;;;;;;12.23;9.07;;;6.90;99.90;;;;;;5027203;28;20271;-79
2023/04/15 02:48:19;;;;;;;11.43;9.20;;;6.90;99.90;;;;;;5027760;28;20225;-78
2023/04/15 02:50:46;;;;;;;14.70;10.60;;;6.90;99.90;;;;;;5035339;28;20299;-79
2023/04/15 02:53:16;;;;;;;14.00;10.30;;;6.90;99.90;;;;;;5029721;28;20829;-79
2023/04/15 02:55:43;;;;;;;13.33;10.03;;;6.90;99.90;;;;;;5027067;28;20750;-80
2023/04/15 02:58:10;;;;;;;13.57;10.20;;;7.00;99.90;;;;;;5022983;28;20240;-80
2023/04/15 03:00:37;;;;;;;15.87;10.90;;;7.00;99.90;;;;;;5025682;28;20221;-79
2023/04/15 03:03:05;;;;;;;16.07;11.17;;;7.00;99.90;;;;;;5024622;28;20235;-80
2023/04/15 03:05:33;;;;;;;14.27;10.63;;;7.00;99.90;;;;;;5029870;28;20278;-80
2023/04/15 03:08:02;;;;;;;15.53;11.30;;;7.00;99.90;;;;;;5025706;28;20746;-80
2023/04/15 03:10:30;;;;;;;16.30;11.83;;;7.00;99.90;;;;;;5028459;28;20309;-80
2023/04/15 03:12:57;;;;;;;19.23;12.47;;;7.00;99.90;;;;;;5020791;28;20272;-80
2023/04/15 03:15:24;;;;;;;18.17;11.83;;;7.00;99.90;;;;;;5039062;28;20236;-81
2023/04/15 03:17:53;;;;;;;18.43;12.50;;;7.00;99.90;;;;;;5019142;28;20250;-81
2023/04/15 03:20:19;;;;;;;17.60;12.70;;;7.00;99.90;;;;;;5026360;28;20392;-81
2023/04/15 03:22:47;;;;;;;18.17;12.97;;;7.00;99.90;;;;;;5025848;28;20623;-83
2023/04/15 03:25:14;;;;;;;18.97;13.03;;;7.00;99.90;;;;;;5039413;28;20291;-81
2023/04/15 03:27:42;;;;;;;18.77;12.50;;;7.00;99.90;;;;;;5017776;28;20718;-81
2023/04/15 03:30:12;;;;;;;20.70;13.67;;;7.00;99.90;;;;;;5022470;28;20230;-80
2023/04/15 03:32:40;;;;;;;21.20;13.77;;;7.00;99.90;;;;;;5020561;28;20246;-80
2023/04/15 03:35:08;;;;;;;20.47;13.37;;;7.00;99.90;;;;;;5023371;28;20792;-81
2023/04/15 03:37:35;;;;;;;21.10;13.07;;;7.00;99.90;;;;;;5020613;28;20222;-82
2023/04/15 03:40:02;;;;;;;20.77;13.80;;;7.10;99.90;;;;;;5023602;28;20228;-83
2023/04/15 03:42:29;;;;;;;20.47;14.17;;;7.00;99.90;;;;;;5015310;28;20218;-83
2023/04/15 03:44:57;;;;;;;22.00;14.23;;;7.10;99.90;;;;;;5020645;28;20223;-82
2023/04/15 03:47:24;;;;;;;20.57;13.37;;;7.10;99.90;;;;;;5020072;28;20264;-82
2023/04/15 03:49:52;;;;;;;19.60;13.03;;;7.10;99.90;;;;;;5029773;28;20237;-82
2023/04/15 03:52:19;;;;;;;23.00;14.70;;;7.10;99.90;;;;;;5017690;28;20326;-82
2023/04/15 03:54:46;;;;;;;24.30;15.47;;;7.00;99.90;;;;;;5024151;28;20276;-82
2023/04/15 03:57:13;;;;;;;20.70;14.10;;;7.10;99.90;;;;;;5017027;28;20218;-82
2023/04/15 03:59:40;;;;;;;23.13;15.03;;;7.10;99.90;;;;;;5018938;28;20249;-82
2023/04/15 04:02:09;;;;;;;29.67;19.63;;;7.00;99.90;;;;;;5018040;28;20238;-82
2023/04/15 04:04:36;;;;;;;45.43;28.77;;;7.00;99.90;;;;;;5021290;28;21575;-82
2023/04/15 04:07:02;;;;;;;32.30;21.43;;;7.10;99.90;;;;;;5019906;28;20241;-82
2023/04/15 04:09:29;;;;;;;25.73;17.37;;;7.10;99.90;;;;;;5022617;28;20228;-82
2023/04/15 04:11:56;;;;;;;27.07;21.50;;;7.10;99.90;;;;;;5023749;28;20785;-82
2023/04/15 04:14:28;;;;;;;22.67;14.60;;;7.10;99.90;;;;;;5019163;28;20232;-81
2023/04/15 04:16:55;;;;;;;25.87;15.93;;;7.10;99.90;;;;;;5024360;28;20303;-85
2023/04/15 04:19:23;;;;;;;24.40;16.33;;;7.10;99.90;;;;;;5023947;28;20234;-82
2023/04/15 04:21:50;;;;;;;34.83;15.93;;;7.10;99.90;;;;;;5022570;28;20773;-81
2023/04/15 04:24:16;;;;;;;29.20;16.73;;;7.10;99.90;;;;;;5025319;28;20231;-79
2023/04/15 04:26:43;;;;;;;33.17;18.53;;;7.10;99.90;;;;;;5022887;28;20227;-79
2023/04/15 04:29:10;;;;;;;45.57;17.67;;;7.10;99.90;;;;;;5024176;28;20677;-79
2023/04/15 04:31:37;;;;;;;39.67;19.00;;;7.10;99.90;;;;;;5021537;28;20218;-79
2023/04/15 04:34:04;;;;;;;29.47;21.53;;;7.10;99.90;;;;;;5024823;28;20826;-79
2023/04/15 04:36:32;;;;;;;32.17;19.50;;;7.10;99.90;;;;;;5035145;28;20226;-79
2023/04/15 04:39:00;;;;;;;38.00;21.30;;;7.10;99.90;;;;;;5022109;28;20236;-79
2023/04/15 04:41:27;;;;;;;67.43;20.20;;;7.10;99.90;;;;;;5028651;28;20237;-80
2023/04/15 04:43:54;;;;;;;63.17;22.43;;;7.10;99.90;;;;;;5030945;28;20217;-80
2023/04/15 04:46:22;;;;;;;52.83;23.10;;;7.10;99.90;;;;;;5035085;28;20598;-81
2023/04/15 04:48:51;;;;;;;38.90;22.17;;;7.10;99.90;;;;;;5043820;28;20229;-80
2023/04/15 04:51:19;;;;;;;43.57;27.70;;;7.10;99.90;;;;;;5044321;28;20644;-80
2023/04/15 04:53:47;;;;;;;89.17;37.60;;;7.10;99.90;;;;;;5025708;28;20229;-80
2023/04/15 04:56:13;;;;;;;55.77;34.10;;;7.10;99.90;;;;;;5034202;28;20309;-80
2023/04/15 04:58:40;;;;;;;37.23;23.77;;;7.10;99.90;;;;;;5029657;28;20708;-81
2023/04/15 05:01:07;;;;;;;44.53;24.13;;;7.20;99.90;;;;;;5035396;28;20287;-80
2023/04/15 05:03:34;;;;;;;42.17;22.07;;;7.10;99.90;;;;;;5027983;28;20949;-80
2023/04/15 05:06:01;;;;;;;31.70;22.57;;;7.20;99.90;;;;;;5040809;28;20238;-81
2023/04/15 05:08:28;;;;;;;43.73;23.83;;;7.20;99.90;;;;;;5031016;28;20238;-80
2023/04/15 05:10:56;;;;;;;34.67;24.23;;;7.20;99.90;;;;;;5029734;28;20222;-80
2023/04/15 05:13:23;;;;;;;40.83;24.00;;;7.20;99.90;;;;;;5036394;28;20725;-80
2023/04/15 05:15:50;;;;;;;35.07;23.20;;;7.20;99.90;;;;;;5042013;28;20795;-80
2023/04/15 05:18:17;;;;;;;35.80;23.37;;;7.30;99.90;;;;;;5025790;28;20265;-79
2023/04/15 05:20:44;;;;;;;35.47;23.67;;;7.20;99.90;;;;;;5027585;28;20774;-79
2023/04/15 05:23:11;;;;;;;33.60;24.13;;;7.30;99.90;;;;;;5027058;28;20250;-79
2023/04/15 05:25:38;;;;;;;31.27;22.07;;;7.30;99.90;;;;;;5025745;28;20719;-77
2023/04/15 05:28:06;;;;;;;35.40;24.40;;;7.30;99.90;;;;;;5024896;28;20231;-78
2023/04/15 05:30:33;;;;;;;35.57;24.03;;;7.30;99.90;;;;;;5026812;28;20612;-79
2023/04/15 05:33:00;;;;;;;33.67;23.63;;;7.30;99.90;;;;;;5026840;28;20269;-80
2023/04/15 05:35:27;;;;;;;38.90;24.87;;;7.30;99.90;;;;;;5023890;28;20231;-81
2023/04/15 05:37:54;;;;;;;35.97;24.63;;;7.30;99.90;;;;;;5027390;28;20229;-80
2023/04/15 05:40:21;;;;;;;34.47;23.23;;;7.30;99.90;;;;;;5026489;28;20233;-80
2023/04/15 05:42:47;;;;;;;35.70;24.87;;;7.30;99.90;;;;;;5026049;28;20313;-81
2023/04/15 05:45:15;;;;;;;33.93;25.53;;;7.30;99.90;;;;;;5024838;28;20245;-80
2023/04/15 05:47:42;;;;;;;35.70;24.97;;;7.30;99.90;;;;;;5028014;28;20224;-80
2023/04/15 05:50:10;;;;;;;36.70;26.97;;;7.30;99.90;;;;;;5026519;28;20232;-80
2023/04/15 05:52:36;;;;;;;37.53;25.43;;;7.30;99.90;;;;;;5037179;28;20246;-81
2023/04/15 05:55:03;;;;;;;38.50;27.30;;;7.40;99.90;;;;;;5034356;28;20223;-81
2023/04/15 05:57:30;;;;;;;58.13;40.87;;;7.30;99.90;;;;;;5034588;28;20752;-81
2023/04/15 05:59:57;;;;;;;42.00;27.20;;;7.40;99.90;;;;;;5026704;28;20225;-84
2023/04/15 06:02:26;;;;;;;37.90;25.67;;;7.30;99.90;;;;;;5010122;28;20295;-81
2023/04/15 06:04:53;;;;;;;43.67;28.03;;;7.30;99.90;;;;;;5026207;28;20298;-83
2023/04/15 06:07:20;;;;;;;50.80;27.57;;;7.30;99.90;;;;;;5026642;28;20225;-83
2023/04/15 06:09:46;;;;;;;41.70;26.90;;;7.30;99.90;;;;;;5025649;28;20223;-82
2023/04/15 06:12:13;;;;;;;41.70;27.23;;;7.30;99.90;;;;;;5028012;28;20262;-82
2023/04/15 06:14:40;;;;;;;42.33;27.10;;;7.30;99.90;;;;;;5039083;28;20513;-83
2023/04/15 06:17:07;;;;;;;41.97;26.97;;;7.30;99.90;;;;;;5027348;28;20724;-83
2023/04/15 06:19:36;;;;;;;43.13;27.20;;;7.40;99.90;;;;;;5028001;28;20874;-82
2023/04/15 06:22:02;;;;;;;41.67;26.23;;;7.40;99.90;;;;;;5033230;28;20234;-82
2023/04/15 06:24:30;;;;;;;42.53;26.93;;;7.40;99.90;;;;;;5042699;28;20337;-82
2023/04/15 06:26:57;;;;;;;45.07;28.67;;;7.40;99.90;;;;;;5041327;28;20672;-83
2023/04/15 06:29:23;;;;;;;39.80;27.43;;;7.40;99.90;;;;;;5032525;28;23354;-82
2023/04/15 06:31:50;;;;;;;43.07;27.87;;;7.40;99.90;;;;;;5027957;28;20764;-82
2023/04/15 06:34:17;;;;;;;39.67;26.93;;;7.40;99.90;;;;;;5038969;28;20226;-84
2023/04/15 06:36:45;;;;;;;43.50;29.47;;;7.50;99.90;;;;;;5032065;28;20230;-82
2023/04/15 06:39:12;;;;;;;40.97;28.37;;;7.50;99.90;;;;;;5029840;28;20240;-82
2023/04/15 06:41:38;;;;;;;40.60;26.97;;;7.50;99.90;;;;;;5027046;28;20232;-82
2023/04/15 06:44:05;;;;;;;38.40;26.37;;;7.60;99.90;;;;;;5028199;28;20780;-83
2023/04/15 06:46:32;;;;;;;43.60;27.90;;;7.60;99.90;;;;;;5031920;28;20234;-84
2023/04/15 06:48:59;;;;;;;41.13;27.60;;;7.60;99.90;;;;;;5035280;28;20224;-83
2023/04/15 06:51:25;;;;;;;37.80;26.47;;;7.60;99.90;;;;;;5034517;28;20231;-82
2023/04/15 06:53:53;;;;;;;41.13;26.43;;;7.60;99.90;;;;;;5029066;28;20224;-82
2023/04/15 06:56:20;;;;;;;56.00;36.60;;;7.60;99.90;;;;;;5031181;28;20219;-82
2023/04/15 06:58:47;;;;;;;43.10;28.67;;;7.60;99.90;;;;;;5032309;28;20325;-82
2023/04/15 07:01:14;;;;;;;52.10;34.07;;;7.60;99.90;;;;;;5032379;28;20231;-83
2023/04/15 07:03:41;;;;;;;42.67;28.90;;;7.60;99.90;;;;;;5028632;28;20219;-83
2023/04/15 07:06:09;;;;;;;43.70;29.73;;;7.60;99.90;;;;;;5029082;28;20231;-82
2023/04/15 07:08:35;;;;;;;44.60;29.50;;;7.60;99.90;;;;;;5057446;23;20241;-80
2023/04/15 07:11:03;;;;;;;44.13;28.30;;;7.60;99.90;;;;;;5057742;28;20253;-83
2023/04/15 07:13:31;;;;;;;46.43;30.67;;;7.60;99.90;;;;;;5040555;28;20222;-82
2023/04/15 07:15:58;;;;;;;47.47;30.57;;;7.70;99.90;;;;;;5039180;28;20688;-81
2023/04/15 07:18:25;;;;;;;46.60;30.93;;;7.70;99.90;;;;;;5025638;28;20235;-83
2023/04/15 07:20:51;;;;;;;46.57;30.93;;;7.70;99.90;;;;;;5020969;28;20225;-80
2023/04/15 07:23:18;;;;;;;50.90;31.47;;;7.70;99.90;;;;;;5011939;28;20224;-80
2023/04/15 07:25:45;;;;;;;47.23;30.97;;;7.70;99.90;;;;;;5017523;28;20330;-82
2023/04/15 07:28:13;;;;;;;45.63;30.43;;;7.70;99.90;;;;;;5034358;28;21047;-80
2023/04/15 07:30:40;;;;;;;48.00;31.67;;;7.70;99.90;;;;;;5006059;28;20234;-84
2023/04/15 07:33:07;;;;;;;46.27;30.83;;;7.70;99.90;;;;;;5010019;28;20222;-80
2023/04/15 07:35:33;;;;;;;51.00;32.77;;;7.70;99.90;;;;;;5022821;28;20896;-81
2023/04/15 07:38:00;;;;;;;47.70;32.20;;;7.70;99.90;;;;;;5023233;28;20234;-81
2023/04/15 07:40:27;;;;;;;53.67;34.03;;;7.70;99.90;;;;;;5023802;28;20227;-80
2023/04/15 07:42:54;;;;;;;48.97;32.57;;;7.70;99.90;;;;;;5021928;28;20230;-83
2023/04/15 07:45:22;;;;;;;51.60;33.17;;;7.70;99.90;;;;;;5024575;28;20470;-81
2023/04/15 07:47:49;;;;;;;50.17;32.30;;;7.70;99.90;;;;;;5014595;28;20237;-82
2023/04/15 07:50:16;;;;;;;49.33;32.63;;;7.80;99.90;;;;;;5044389;28;20724;-82
2023/04/15 07:52:43;;;;;;;48.57;31.17;;;7.80;99.90;;;;;;5028126;28;20223;-81
2023/04/15 07:55:10;;;;;;;46.53;30.80;;;7.80;99.90;;;;;;5028585;28;20244;-80
2023/04/15 07:57:37;;;;;;;50.50;33.13;;;7.80;99.90;;;;;;5030051;28;20239;-81
2023/04/15 08:00:06;;;;;;;44.90;29.77;;;7.90;99.90;;;;;;5024980;28;20234;-81
2023/04/15 08:02:41;;;;;;;46.27;31.23;;;7.90;99.90;;;;;;5026449;28;20238;-80
2023/04/15 08:05:09;;;;;;;41.53;29.67;;;7.90;99.90;;;;;;5028350;28;20410;-80
2023/04/15 08:07:36;;;;;;;44.43;30.00;;;7.90;99.90;;;;;;5028334;28;20231;-81
2023/04/15 08:10:03;;;;;;;50.50;32.80;;;8.00;99.90;;;;;;5029625;28;20230;-82
2023/04/15 08:12:30;;;;;;;46.87;29.40;;;8.00;99.90;;;;;;5026086;28;20228;-84
2023/04/15 08:14:57;;;;;;;46.90;30.83;;;8.00;99.90;;;;;;5027272;28;20749;-83
2023/04/15 08:17:24;;;;;;;46.57;31.30;;;8.00;99.90;;;;;;5027157;28;20236;-81
2023/04/15 08:19:52;;;;;;;48.07;30.60;;;8.10;99.90;;;;;;5022837;28;20227;-81
2023/04/15 08:22:19;;;;;;;50.80;34.47;;;8.10;99.90;;;;;;5024074;28;20220;-82
2023/04/15 08:24:46;;;;;;;45.43;29.90;;;8.20;99.90;;;;;;5026244;28;20242;-81
2023/04/15 08:27:12;;;;;;;55.57;37.07;;;8.20;99.90;;;;;;5023797;28;21215;-83
2023/04/15 08:29:40;;;;;;;45.03;30.40;;;8.30;99.90;;;;;;5027207;28;20319;-80
2023/04/15 08:32:07;;;;;;;47.60;31.80;;;8.30;99.90;;;;;;5023597;28;20291;-80
2023/04/15 08:34:34;;;;;;;45.17;30.13;;;8.40;99.90;;;;;;5024783;28;20231;-81
2023/04/15 08:37:02;;;;;;;47.17;32.03;;;8.40;99.90;;;;;;5020497;28;20224;-80
2023/04/15 08:39:29;;;;;;;62.70;42.77;;;8.50;99.90;;;;;;5026580;28;20319;-82
2023/04/15 08:42:00;;;;;;;53.07;34.80;;;8.50;99.90;;;;;;5038871;28;20707;-80
2023/04/15 08:44:30;;;;;;;48.30;32.97;;;8.50;99.90;;;;;;5025487;28;20281;-86
2023/04/15 08:47:00;;;;;;;48.00;32.17;;;8.60;99.90;;;;;;5021678;28;20228;-80
2023/04/15 08:49:27;;;;;;;45.87;32.07;;;8.70;99.90;;;;;;5019517;28;20239;-82
2023/04/15 08:51:55;;;;;;;46.90;31.30;;;8.70;99.90;;;;;;5023169;28;20224;-81
2023/04/15 08:54:23;;;;;;;50.70;34.07;;;8.80;99.90;;;;;;5037906;28;20698;-80
2023/04/15 08:56:50;;;;;;;47.07;32.10;;;8.80;99.90;;;;;;5022115;28;20216;-82
2023/04/15 08:59:17;;;;;;;49.00;34.13;;;8.80;99.90;;;;;;5022365;28;20239;-83
2023/04/15 09:01:44;;;;;;;50.73;33.03;;;8.90;99.90;;;;;;5023616;28;20220;-80
2023/04/15 09:04:11;;;;;;;50.83;32.27;;;9.00;99.90;;;;;;5024534;28;20322;-84
2023/04/15 09:06:40;;;;;;;46.13;30.80;;;9.00;99.90;;;;;;5020300;28;20229;-81
2023/04/15 09:09:07;;;;;;;43.00;29.90;;;9.10;99.90;;;;;;5022527;28;20314;-80
2023/04/15 09:11:35;;;;;;;47.17;31.70;;;9.10;99.90;;;;;;5019206;28;20800;-80
2023/04/15 09:14:02;;;;;;;42.10;28.80;;;9.20;99.90;;;;;;5037802;28;20224;-81
2023/04/15 09:16:29;;;;;;;41.40;28.70;;;9.30;99.90;;;;;;5020717;28;20223;-81
2023/04/15 09:18:56;;;;;;;42.13;27.40;;;9.40;99.90;;;;;;5018595;28;20254;-83
2023/04/15 09:21:24;;;;;;;42.63;27.90;;;9.50;99.90;;;;;;5022313;28;20237;-80
2023/04/15 09:23:56;;;;;;;39.17;28.80;;;9.70;99.90;;;;;;5022957;28;20222;-82
2023/04/15 09:26:31;;;;;;;39.50;27.93;;;9.90;99.90;;;;;;5022126;28;20278;-82
2023/04/15 09:29:05;;;;;;;37.13;25.27;;;10.10;99.90;;;;;;5021719;28;20257;-80
2023/04/15 09:31:32;;;;;;;48.63;30.10;;;10.40;99.90;;;;;;5022290;28;20232;-80
2023/04/15 09:33:59;;;;;;;35.63;25.37;;;10.60;99.90;;;;;;5022625;28;20220;-81
2023/04/15 09:36:28;;;;;;;30.33;22.60;;;10.90;99.90;;;;;;5024023;28;20315;-81
2023/04/15 09:38:57;;;;;;;32.47;23.43;;;11.20;99.90;;;;;;5022266;28;20255;-83
2023/04/15 09:41:24;;;;;;;34.17;23.60;;;11.50;99.90;;;;;;5017459;28;21867;-80
2023/04/15 09:43:50;;;;;;;30.00;24.30;;;11.80;99.90;;;;;;5020541;28;20230;-83
2023/04/15 09:46:18;;;;;;;30.93;23.57;;;12.10;99.90;;;;;;5017903;28;20705;-80
2023/04/15 09:48:45;;;;;;;29.23;22.57;;;12.30;99.90;;;;;;5021540;28;20238;-82
2023/04/15 09:51:13;;;;;;;31.07;22.30;;;12.50;99.90;;;;;;5016836;28;20216;-79
2023/04/15 09:53:39;;;;;;;33.23;25.03;;;12.80;99.90;;;;;;5018776;28;20226;-82
2023/04/15 09:56:07;;;;;;;26.80;18.83;;;13.10;99.90;;;;;;5021738;28;20735;-80
2023/04/15 10:21:09;;;;;;;19.17;15.73;;;14.70;99.90;;;;;;4976300;23;20316;-78
2023/04/15 10:24:03;;;;;;;18.30;15.47;;;14.80;99.90;;;;;;5001696;28;20756;-79
2023/04/15 10:26:30;;;;;;;21.40;15.70;;;14.80;99.90;;;;;;5017772;23;20915;-80
2023/04/15 10:28:58;;;;;;;18.30;15.20;;;15.00;99.90;;;;;;5014782;22;20226;-84
2023/04/15 10:34:06;;;;;;;19.70;15.60;;;15.00;99.90;;;;;;5009885;23;21171;-79
2023/04/15 10:36:34;;;;;;;21.70;17.03;;;15.10;99.90;;;;;;5005043;23;20232;-77
2023/04/15 10:39:01;;;;;;;20.27;15.77;;;15.10;99.90;;;;;;4998880;28;20328;-77
2023/04/15 10:41:30;;;;;;;17.90;14.20;;;15.10;99.90;;;;;;4991019;28;20858;-78
2023/04/15 10:44:01;;;;;;;17.93;14.73;;;15.10;99.90;;;;;;5001134;28;20217;-78
2023/04/15 10:46:36;;;;;;;16.10;14.03;;;15.00;99.90;;;;;;4997982;28;20233;-76
2023/04/15 10:49:08;;;;;;;19.50;13.17;;;15.00;99.90;;;;;;4997687;28;20270;-78
2023/04/15 10:51:40;;;;;;;15.87;13.10;;;15.00;99.90;;;;;;4981830;28;20219;-78
2023/04/15 10:54:13;;;;;;;13.87;12.37;;;14.90;99.90;;;;;;4983348;28;20275;-78
2023/04/15 10:56:41;;;;;;;16.87;13.10;;;14.90;99.90;;;;;;4995671;28;20230;-78
2023/04/15 10:59:09;;;;;;;15.37;12.37;;;14.80;99.90;;;;;;4997594;28;20236;-78
2023/04/15 11:01:51;;;;;;;17.20;12.97;;;14.80;99.90;;;;;;5001539;28;20212;-77
2023/04/15 11:04:51;;;;;;;15.43;12.13;;;14.70;99.90;;;;;;4998436;28;20228;-78
2023/04/15 11:07:49;;;;;;;18.17;12.80;;;14.60;99.90;;;;;;4999301;28;20224;-78
2023/04/15 11:10:53;;;;;;;15.03;12.30;;;14.60;99.90;;;;;;4996447;28;20713;-76
2023/04/15 11:13:22;;;;;;;15.70;12.90;;;14.50;99.90;;;;;;4982332;28;20235;-78
2023/04/15 11:15:50;;;;;;;16.93;13.87;;;14.50;99.90;;;;;;4980257;28;20710;-77
2023/04/15 11:18:19;;;;;;;15.60;12.87;;;14.40;99.90;;;;;;4996974;28;20726;-77
2023/04/15 11:20:49;;;;;;;16.03;14.10;;;14.30;99.90;;;;;;5000495;28;20230;-77
2023/04/15 11:23:18;;;;;;;15.00;13.30;;;14.40;99.90;;;;;;5000091;28;20249;-77
2023/04/15 11:25:47;;;;;;;16.87;12.23;;;14.30;99.90;;;;;;5006844;28;20232;-77
2023/04/15 11:28:14;;;;;;;13.87;12.27;;;14.30;99.90;;;;;;5005300;28;20227;-78
2023/04/15 11:30:42;;;;;;;13.60;11.67;;;14.30;99.90;;;;;;4985140;28;20237;-78
2023/04/15 11:33:11;;;;;;;16.93;12.67;;;14.40;99.90;;;;;;5005365;28;20234;-78
2023/04/15 11:35:39;;;;;;;13.40;11.67;;;14.50;99.90;;;;;;5009042;28;20236;-78
2023/04/15 11:38:12;;;;;;;15.07;11.47;;;14.60;99.90;;;;;;5003472;28;20248;-77
2023/04/15 11:40:41;;;;;;;13.00;11.23;;;14.70;99.90;;;;;;5005205;28;20242;-78
2023/04/15 11:43:10;;;;;;;15.10;12.20;;;14.80;99.90;;;;;;5001041;28;20224;-76
2023/04/15 11:45:37;;;;;;;12.30;10.83;;;15.00;99.90;;;;;;5003283;28;20252;-78
2023/04/15 11:48:07;;;;;;;14.33;12.00;;;15.20;99.90;;;;;;4990042;28;20231;-78
2023/04/15 11:50:35;;;;;;;11.93;10.57;;;15.40;99.90;;;;;;5005281;28;20226;-77
2023/04/15 11:53:03;;;;;;;13.90;11.27;;;15.50;99.90;;;;;;5002414;28;20858;-77
2023/04/15 11:55:30;;;;;;;13.77;11.00;;;15.60;99.90;;;;;;4996726;28;20238;-78
2023/04/15 11:58:11;;;;;;;11.80;10.23;;;15.70;99.90;;;;;;4983318;28;20274;-78
2023/04/15 12:00:40;;;;;;;12.23;10.57;;;15.60;99.90;;;;;;4985409;28;20221;-78
2023/04/15 12:03:28;;;;;;;14.27;11.17;;;15.50;99.90;;;;;;4995285;28;20247;-77
2023/04/15 12:06:12;;;;;;;14.30;11.73;;;15.40;99.90;;;;;;4995713;28;20226;-77
2023/04/15 12:09:00;;;;;;;14.00;11.07;;;15.30;99.90;;;;;;4999868;28;20605;-77
2023/04/15 12:11:34;;;;;;;12.93;10.73;;;15.10;99.90;;;;;;4994960;28;20229;-78
2023/04/15 12:14:08;;;;;;;13.67;10.93;;;15.00;99.90;;;;;;4980397;28;20320;-77
2023/04/15 12:16:37;;;;;;;12.77;10.60;;;15.00;99.90;;;;;;4996750;28;20628;-78
2023/04/15 12:19:06;;;;;;;13.87;10.90;;;14.90;99.90;;;;;;5005949;28;20247;-78
2023/04/15 12:21:35;;;;;;;12.03;10.77;;;14.90;99.90;;;;;;4997888;28;20293;-80
2023/04/15 12:24:03;;;;;;;10.70;9.60;;;14.90;99.90;;;;;;5006773;28;20250;-77
2023/04/15 12:26:31;;;;;;;11.67;10.00;;;14.80;99.90;;;;;;4998040;28;20231;-79
2023/04/15 12:29:01;;;;;;;12.43;10.00;;;14.80;99.90;;;;;;5005535;28;21519;-80
2023/04/15 12:31:29;;;;;;;13.73;10.73;;;14.70;99.90;;;;;;5006183;28;20216;-79
2023/04/15 12:33:56;;;;;;;11.63;10.40;;;14.50;99.90;;;;;;5005566;28;20239;-78
2023/04/15 12:36:23;;;;;;;11.60;9.80;;;14.50;99.90;;;;;;5004476;28;20228;-80
2023/04/15 12:38:50;;;;;;;11.20;10.00;;;14.40;99.90;;;;;;5005732;28;20232;-78
2023/04/15 12:41:17;;;;;;;13.07;10.33;;;14.30;99.90;;;;;;5005552;28;20218;-79
2023/04/15 12:43:45;;;;;;;12.83;10.93;;;14.20;99.90;;;;;;5003446;28;20771;-80
2023/04/15 12:46:12;;;;;;;14.00;11.40;;;14.20;99.90;;;;;;5002077;28;20321;-79
2023/04/15 12:48:40;;;;;;;15.57;11.53;;;14.20;99.90;;;;;;4986123;28;20400;-78
2023/04/15 12:51:07;;;;;;;13.73;11.53;;;14.10;99.90;;;;;;4983745;28;20698;-77
2023/04/15 12:53:33;;;;;;;15.23;11.97;;;14.00;99.90;;;;;;4999912;28;20223;-80
2023/04/15 12:56:00;;;;;;;15.37;11.17;;;13.90;99.90;;;;;;4997071;28;20277;-79
2023/04/15 12:58:27;;;;;;;15.83;11.37;;;13.80;99.90;;;;;;4984933;28;20234;-76
2023/04/15 13:00:54;;;;;;;13.50;11.47;;;13.90;99.90;;;;;;4987884;28;20232;-79
2023/04/15 13:03:20;;;;;;;14.10;11.67;;;13.80;99.90;;;;;;4986309;28;20258;-79
2023/04/15 13:05:48;;;;;;;15.43;11.83;;;13.80;99.90;;;;;;4987495;28;20257;-78
2023/04/15 13:08:15;;;;;;;13.00;11.60;;;13.90;99.90;;;;;;4985857;28;20640;-79